createdAt,value
2023-05-14T00:00:46.521Z,21.02
2023-05-14T00:03:14.420Z,21.02
2023-05-14T00:05:41.924Z,21.12
2023-05-14T00:08:09.331Z,21.31
2023-05-14T00:10:38.135Z,21.08
2023-05-14T00:13:05.857Z,21.07
2023-05-14T00:15:34.302Z,21.18
2023-05-14T00:18:02.481Z,21.14
2023-05-14T00:20:30.316Z,21.12
2023-05-14T00:22:57.578Z,21.00
2023-05-14T00:25:25.038Z,20.80
2023-05-14T00:27:53.855Z,20.43
2023-05-14T00:30:21.662Z,21.00
2023-05-14T00:32:52.157Z,20.94
2023-05-14T00:35:20.025Z,20.50
2023-05-14T00:37:47.593Z,20.46
2023-05-14T00:40:15.656Z,20.41
2023-05-14T00:42:43.251Z,20.55
2023-05-14T00:45:13.251Z,20.45
2023-05-14T00:47:41.023Z,20.47
2023-05-14T00:50:09.554Z,20.38
2023-05-14T00:52:38.002Z,20.34
2023-05-14T00:55:06.978Z,20.17
2023-05-14T00:57:35.364Z,20.23
2023-05-14T01:00:07.804Z,20.39
2023-05-14T01:02:38.259Z,20.48
2023-05-14T01:05:06.630Z,20.61
2023-05-14T01:07:39.760Z,19.94
2023-05-14T01:10:13.609Z,20.22
2023-05-14T01:12:52.341Z,20.23
2023-05-14T01:15:21.793Z,19.95
2023-05-14T01:17:54.493Z,19.98
2023-05-14T01:20:22.461Z,20.03
2023-05-14T01:22:51.802Z,20.21
2023-05-14T01:25:19.558Z,20.14
2023-05-14T01:27:53.035Z,19.56
2023-05-14T01:30:27.779Z,20.14
2023-05-14T01:32:59.275Z,19.54
2023-05-14T01:35:28.446Z,19.76
2023-05-14T01:38:02.673Z,19.88
2023-05-14T01:40:31.752Z,19.89
2023-05-14T01:42:59.649Z,19.87
2023-05-14T01:45:27.130Z,19.80
2023-05-14T01:47:54.663Z,19.68
2023-05-14T01:50:22.170Z,19.57
2023-05-14T01:52:49.600Z,19.80
2023-05-14T01:55:18.644Z,19.88
2023-05-14T01:57:46.375Z,19.82
2023-05-14T02:00:14.388Z,19.43
2023-05-14T02:02:41.644Z,19.45
2023-05-14T02:05:12.868Z,19.16
2023-05-14T02:07:40.439Z,19.43
2023-05-14T02:10:11.419Z,18.79
2023-05-14T02:12:40.299Z,19.29
2023-05-14T02:15:08.687Z,19.20
2023-05-14T02:17:36.760Z,18.76
2023-05-14T02:20:05.085Z,18.92
2023-05-14T02:22:32.717Z,18.89
2023-05-14T02:25:00.365Z,18.61
2023-05-14T02:27:27.773Z,19.44
2023-05-14T02:29:56.473Z,18.90
2023-05-14T02:32:23.968Z,19.11
2023-05-14T02:34:51.293Z,19.45
2023-05-14T02:37:18.829Z,19.25
2023-05-14T02:39:47.187Z,19.12
2023-05-14T02:42:16.444Z,19.21
2023-05-14T02:44:43.746Z,19.32
2023-05-14T02:47:14.552Z,19.16
2023-05-14T02:49:42.097Z,19.43
2023-05-14T02:52:09.615Z,19.55
2023-05-14T02:54:38.387Z,19.28
2023-05-14T02:57:05.795Z,19.05
2023-05-14T02:59:33.448Z,19.29
2023-05-14T03:02:01.498Z,19.45
2023-05-14T03:04:33.257Z,18.96
2023-05-14T03:07:00.658Z,19.12
2023-05-14T03:09:28.235Z,18.95
2023-05-14T03:11:57.211Z,18.94
2023-05-14T03:14:24.635Z,18.91
2023-05-14T03:16:52.970Z,19.38
2023-05-14T03:19:20.271Z,19.41
2023-05-14T03:21:49.139Z,19.26
2023-05-14T03:24:16.908Z,19.39
2023-05-14T03:26:46.542Z,19.27
2023-05-14T03:29:14.131Z,19.28
2023-05-14T03:31:41.563Z,19.70
2023-05-14T03:34:09.181Z,19.57
2023-05-14T03:36:36.608Z,19.61
2023-05-14T03:39:05.598Z,19.45
2023-05-14T03:41:33.139Z,19.44
2023-05-14T03:44:00.613Z,19.46
2023-05-14T03:46:28.197Z,19.51
2023-05-14T03:48:56.755Z,19.27
2023-05-14T03:51:24.758Z,19.09
2023-05-14T03:53:52.148Z,19.27
2023-05-14T03:56:22.185Z,19.25
2023-05-14T03:58:49.585Z,19.73
2023-05-14T04:01:17.065Z,19.62
2023-05-14T04:03:44.565Z,19.80
2023-05-14T04:06:14.550Z,19.69
2023-05-14T04:08:42.035Z,19.71
2023-05-14T04:11:09.758Z,20.33
2023-05-14T04:13:38.481Z,19.80
2023-05-14T04:16:06.376Z,19.89
2023-05-14T04:18:34.069Z,20.20
2023-05-14T04:21:01.655Z,20.09
2023-05-14T04:23:29.090Z,20.40
2023-05-14T04:25:56.643Z,20.73
2023-05-14T04:28:24.008Z,20.12
2023-05-14T04:30:53.121Z,19.80
2023-05-14T04:33:22.520Z,20.12
2023-05-14T04:35:50.046Z,20.04
2023-05-14T04:38:17.342Z,20.42
2023-05-14T04:40:44.791Z,20.39
2023-05-14T04:43:13.024Z,20.56
2023-05-14T04:45:40.587Z,20.50
2023-05-14T04:48:09.373Z,20.54
2023-05-14T04:50:38.802Z,20.97
2023-05-14T04:53:06.484Z,20.99
2023-05-14T04:55:33.825Z,20.91
2023-05-14T04:58:01.171Z,21.46
2023-05-14T05:00:28.655Z,21.18
2023-05-14T05:02:56.318Z,21.49
2023-05-14T05:05:27.255Z,21.79
2023-05-14T05:07:55.130Z,21.92
2023-05-14T05:10:26.422Z,22.11
2023-05-14T05:12:54.063Z,22.13
2023-05-14T05:15:21.461Z,21.84
2023-05-14T05:17:49.006Z,22.11
2023-05-14T05:20:17.777Z,22.13
2023-05-14T05:22:47.003Z,21.95
2023-05-14T05:25:15.286Z,22.43
2023-05-14T05:27:43.274Z,22.75
2023-05-14T05:30:14.591Z,22.09
2023-05-14T05:32:42.370Z,22.61
2023-05-14T05:35:10.018Z,22.13
2023-05-14T05:37:41.276Z,22.51
2023-05-14T05:40:10.804Z,22.49
2023-05-14T05:42:38.151Z,22.66
2023-05-14T05:45:06.980Z,23.01
2023-05-14T05:47:34.818Z,23.43
2023-05-14T05:50:02.382Z,23.22
2023-05-14T05:52:31.849Z,23.05
2023-05-14T05:54:59.306Z,23.47
2023-05-14T05:57:28.072Z,23.35
2023-05-14T05:59:55.459Z,23.32
2023-05-14T06:02:24.420Z,23.72
2023-05-14T06:04:51.950Z,23.39
2023-05-14T06:07:19.720Z,23.87
2023-05-14T06:09:47.356Z,23.74
2023-05-14T06:12:16.147Z,23.68
2023-05-14T06:14:52.566Z,23.35
2023-05-14T06:17:20.696Z,23.37
2023-05-14T06:19:49.847Z,23.22
2023-05-14T06:22:18.064Z,22.93
2023-05-14T06:24:45.402Z,23.31
2023-05-14T06:27:12.755Z,23.47
2023-05-14T06:29:40.267Z,23.88
2023-05-14T06:32:09.999Z,23.97
2023-05-14T06:34:38.519Z,23.54
2023-05-14T06:37:06.241Z,24.31
2023-05-14T06:39:33.652Z,23.60
2023-05-14T06:42:01.373Z,24.08
2023-05-14T06:44:31.531Z,24.26
2023-05-14T06:47:02.942Z,24.26
2023-05-14T06:49:34.341Z,24.11
2023-05-14T06:52:01.772Z,24.20
2023-05-14T06:54:29.565Z,24.89
2023-05-14T06:56:57.563Z,24.18
2023-05-14T06:59:24.796Z,24.51
2023-05-14T07:01:52.746Z,25.33
2023-05-14T07:04:20.273Z,25.02
2023-05-14T07:06:50.323Z,25.03
2023-05-14T07:09:18.193Z,25.08
2023-05-14T07:11:46.094Z,25.42
2023-05-14T07:14:13.392Z,25.67
2023-05-14T07:16:40.785Z,25.78
2023-05-14T07:19:08.395Z,25.88
2023-05-14T07:21:35.892Z,25.58
2023-05-14T07:24:05.381Z,25.35
2023-05-14T07:26:32.861Z,25.38
2023-05-14T07:29:00.205Z,25.24
2023-05-14T07:31:27.729Z,25.49
2023-05-14T07:33:55.114Z,25.66
2023-05-14T07:36:23.159Z,25.62
2023-05-14T07:38:50.596Z,26.16
2023-05-14T07:41:19.843Z,26.15
2023-05-14T07:43:47.128Z,26.32
2023-05-14T07:46:14.744Z,26.86
2023-05-14T07:48:42.077Z,25.90
2023-05-14T07:51:12.099Z,26.61
2023-05-14T07:53:39.915Z,26.30
2023-05-14T07:56:08.259Z,26.36
2023-05-14T07:58:36.889Z,27.02
2023-05-14T08:01:07.148Z,26.47
2023-05-14T08:03:34.783Z,26.95
2023-05-14T08:06:02.199Z,26.20
2023-05-14T08:08:29.748Z,26.35
2023-05-14T08:10:57.121Z,27.00
2023-05-14T08:13:24.579Z,27.28
2023-05-14T08:15:53.209Z,27.96
2023-05-14T08:18:23.258Z,27.78
2023-05-14T08:20:51.799Z,26.99
2023-05-14T08:23:21.194Z,27.89
2023-05-14T08:25:48.844Z,27.77
2023-05-14T08:28:16.228Z,27.56
2023-05-14T08:30:43.697Z,28.23
2023-05-14T08:33:12.470Z,27.77
2023-05-14T08:35:39.761Z,28.56
2023-05-14T08:38:07.133Z,28.74
2023-05-14T08:40:35.150Z,28.80
2023-05-14T08:43:04.075Z,28.04
2023-05-14T08:45:34.497Z,28.57
2023-05-14T08:48:07.253Z,26.99
2023-05-14T08:50:38.990Z,27.47
2023-05-14T08:53:08.454Z,27.70
2023-05-14T08:55:37.275Z,27.87
2023-05-14T08:58:04.700Z,27.29
2023-05-14T09:00:32.105Z,28.43
2023-05-14T09:03:00.644Z,27.43
2023-05-14T09:05:28.150Z,29.33
2023-05-14T09:07:57.023Z,30.51
2023-05-14T09:10:24.507Z,28.84
2023-05-14T09:12:52.052Z,27.89
2023-05-14T09:15:19.482Z,28.63
2023-05-14T09:17:46.993Z,29.41
2023-05-14T09:20:15.922Z,28.20
2023-05-14T09:22:43.280Z,28.89
2023-05-14T09:25:12.584Z,29.63
2023-05-14T09:27:39.853Z,29.67
2023-05-14T09:30:09.672Z,29.37
2023-05-14T09:32:38.751Z,29.99
2023-05-14T09:35:14.136Z,30.00
2023-05-14T09:37:42.778Z,30.75
2023-05-14T09:40:14.303Z,30.12
2023-05-14T09:42:45.439Z,31.09
2023-05-14T09:45:12.961Z,31.45
2023-05-14T09:47:40.719Z,31.07
2023-05-14T09:50:09.034Z,32.01
2023-05-14T09:52:38.048Z,31.02
2023-05-14T09:55:06.317Z,31.61
2023-05-14T09:57:35.116Z,30.76
2023-05-14T10:00:02.691Z,32.14
2023-05-14T10:02:36.567Z,31.03
2023-05-14T10:05:05.503Z,28.34
2023-05-14T10:07:38.617Z,28.00
2023-05-14T10:10:10.591Z,28.49
2023-05-14T10:12:41.140Z,29.10
2023-05-14T10:15:16.610Z,28.92
2023-05-14T10:17:49.785Z,28.74
2023-05-14T10:20:17.431Z,29.14
2023-05-14T10:22:45.082Z,29.09
2023-05-14T10:25:12.883Z,27.86
2023-05-14T10:27:42.346Z,28.15
2023-05-14T10:30:12.978Z,27.53
2023-05-14T10:32:40.845Z,27.65
2023-05-14T10:35:18.477Z,28.42
2023-05-14T10:37:46.553Z,29.12
2023-05-14T10:40:14.100Z,29.42
2023-05-14T10:42:43.832Z,29.05
2023-05-14T10:45:12.587Z,30.08
2023-05-14T10:47:42.351Z,30.75
2023-05-14T10:50:12.348Z,30.97
2023-05-14T10:52:41.953Z,29.96
2023-05-14T10:55:12.536Z,29.76
2023-05-14T10:57:42.598Z,28.60
2023-05-14T11:00:12.165Z,29.28
2023-05-14T11:02:41.237Z,29.43
2023-05-14T11:05:10.800Z,29.79
2023-05-14T11:07:39.838Z,29.59
2023-05-14T11:10:09.418Z,29.21
2023-05-14T11:12:38.160Z,29.98
2023-05-14T11:15:09.531Z,30.20
2023-05-14T11:17:38.835Z,30.73
2023-05-14T11:20:07.080Z,30.24
2023-05-14T11:22:36.945Z,30.15
2023-05-14T11:25:05.603Z,30.65
2023-05-14T11:27:35.092Z,31.57
2023-05-14T11:30:03.381Z,29.74
2023-05-14T11:32:33.350Z,31.04
2023-05-14T11:35:04.296Z,30.26
2023-05-14T11:37:31.596Z,30.49
2023-05-14T11:40:00.878Z,30.30
2023-05-14T11:42:28.581Z,30.29
2023-05-14T11:44:55.861Z,30.62
2023-05-14T11:47:23.324Z,30.73
2023-05-14T11:49:52.997Z,30.36
2023-05-14T11:52:20.843Z,30.34
2023-05-14T11:54:49.200Z,30.28
2023-05-14T11:57:19.216Z,30.41
2023-05-14T11:59:47.776Z,30.79
2023-05-14T12:02:17.523Z,30.44
2023-05-14T12:04:49.519Z,31.06
2023-05-14T12:07:18.317Z,33.64
2023-05-14T12:09:46.923Z,34.50
2023-05-14T12:12:14.317Z,33.26
2023-05-14T12:14:43.172Z,32.26
2023-05-14T12:17:12.806Z,33.31
2023-05-14T12:19:41.318Z,34.48
2023-05-14T12:22:10.417Z,34.48
2023-05-14T12:24:39.081Z,34.06
2023-05-14T12:27:07.213Z,30.80
2023-05-14T12:29:38.506Z,31.31
2023-05-14T12:32:09.043Z,30.74
2023-05-14T12:34:37.836Z,29.35
2023-05-14T12:37:07.210Z,31.83
2023-05-14T12:39:35.716Z,31.81
2023-05-14T12:42:04.453Z,31.23
2023-05-14T12:44:31.873Z,31.52
2023-05-14T12:46:59.771Z,31.91
2023-05-14T12:49:27.348Z,32.45
2023-05-14T12:52:07.819Z,33.77
2023-05-14T12:54:42.965Z,32.95
2023-05-14T12:57:11.745Z,34.95
2023-05-14T12:59:39.194Z,34.49
2023-05-14T13:02:07.487Z,37.58
2023-05-14T13:04:37.750Z,37.73
2023-05-14T13:07:05.415Z,37.35
2023-05-14T13:09:34.989Z,36.78
2023-05-14T13:12:03.597Z,36.43
2023-05-14T13:14:32.615Z,38.00
2023-05-14T13:17:00.112Z,36.45
2023-05-14T13:19:27.785Z,36.34
2023-05-14T13:22:04.970Z,36.37
2023-05-14T13:24:32.519Z,35.08
2023-05-14T13:27:00.400Z,35.29
2023-05-14T13:29:28.038Z,36.66
2023-05-14T13:31:59.457Z,35.19
2023-05-14T13:34:27.679Z,35.82
2023-05-14T13:36:57.974Z,34.32
2023-05-14T13:39:25.417Z,34.59
2023-05-14T13:41:56.757Z,32.64
2023-05-14T13:44:24.438Z,34.10
2023-05-14T13:46:59.842Z,35.13
2023-05-14T13:49:27.812Z,34.17
2023-05-14T13:51:58.107Z,34.62
2023-05-14T13:54:27.917Z,33.71
2023-05-14T13:56:58.772Z,31.65
2023-05-14T13:59:26.859Z,32.43
2023-05-14T14:01:54.809Z,32.31
2023-05-14T14:04:23.929Z,32.43
2023-05-14T14:06:51.623Z,32.36
2023-05-14T14:09:19.103Z,31.98
2023-05-14T14:11:48.880Z,31.80
2023-05-14T14:14:16.557Z,31.72
2023-05-14T14:16:47.122Z,31.15
2023-05-14T14:19:19.043Z,30.67
2023-05-14T14:21:56.603Z,30.38
2023-05-14T14:24:24.834Z,30.19
2023-05-14T14:26:54.959Z,31.00
2023-05-14T14:29:22.349Z,30.86
2023-05-14T14:31:49.780Z,30.70
2023-05-14T14:34:17.203Z,30.43
2023-05-14T14:36:44.867Z,30.42
2023-05-14T14:39:13.643Z,30.37
2023-05-14T14:41:41.284Z,31.03
2023-05-14T14:44:12.064Z,30.22
2023-05-14T14:46:39.722Z,30.87
2023-05-14T14:49:07.104Z,30.12
2023-05-14T14:51:37.805Z,30.93
2023-05-14T14:54:07.982Z,30.88
2023-05-14T14:56:38.044Z,31.06
2023-05-14T14:59:05.608Z,30.74
2023-05-14T15:01:33.522Z,30.84
2023-05-14T15:04:01.055Z,31.60
2023-05-14T15:06:28.669Z,31.47
2023-05-14T15:08:56.010Z,31.51
2023-05-14T15:11:23.696Z,30.97
2023-05-14T15:13:52.944Z,30.89
2023-05-14T15:16:23.669Z,31.25
2023-05-14T15:18:51.342Z,30.09
2023-05-14T15:21:22.384Z,29.69
2023-05-14T15:23:51.741Z,30.09
2023-05-14T15:26:28.818Z,30.77
2023-05-14T15:28:57.592Z,31.57
2023-05-14T15:31:27.881Z,30.40
2023-05-14T15:33:58.583Z,30.05
2023-05-14T15:36:26.050Z,29.75
2023-05-14T15:38:55.900Z,29.54
2023-05-14T15:41:30.784Z,30.53
2023-05-14T15:44:01.802Z,30.91
2023-05-14T15:46:29.405Z,31.49
2023-05-14T15:48:58.087Z,31.03
2023-05-14T15:51:30.694Z,30.13
2023-05-14T15:53:58.550Z,31.21
2023-05-14T15:56:26.230Z,31.77
2023-05-14T15:58:53.808Z,31.58
2023-05-14T16:01:22.786Z,31.18
2023-05-14T16:03:52.326Z,31.24
2023-05-14T16:06:19.767Z,31.37
2023-05-14T16:08:49.604Z,31.37
2023-05-14T16:11:17.442Z,31.68
2023-05-14T16:13:44.779Z,33.36
2023-05-14T16:16:12.850Z,32.48
2023-05-14T16:18:42.208Z,30.19
2023-05-14T16:21:11.817Z,28.90
2023-05-14T16:23:43.962Z,28.87
2023-05-14T16:26:11.457Z,28.16
2023-05-14T16:28:38.773Z,28.55
2023-05-14T16:31:06.249Z,28.54
2023-05-14T16:33:33.488Z,27.96
2023-05-14T16:36:02.410Z,28.05
2023-05-14T16:38:29.752Z,27.63
2023-05-14T16:41:00.276Z,26.70
2023-05-14T16:43:28.097Z,26.34
2023-05-14T16:46:01.237Z,25.38
2023-05-14T16:48:30.214Z,24.89
2023-05-14T16:50:58.791Z,24.92
2023-05-14T16:53:27.895Z,24.51
2023-05-14T16:55:55.723Z,24.71
2023-05-14T16:58:23.412Z,24.56
2023-05-14T17:00:51.358Z,24.43
2023-05-14T17:03:19.166Z,24.68
2023-05-14T17:05:46.514Z,24.83
2023-05-14T17:08:17.983Z,24.72
2023-05-14T17:10:54.094Z,24.86
2023-05-14T17:13:24.338Z,24.85
2023-05-14T17:15:51.687Z,24.74
2023-05-14T17:18:19.332Z,24.60
2023-05-14T17:20:49.548Z,24.96
2023-05-14T17:23:16.913Z,25.10
2023-05-14T17:25:44.375Z,25.35
2023-05-14T17:28:13.645Z,25.47
2023-05-14T17:30:44.107Z,25.38
2023-05-14T17:33:11.413Z,25.29
2023-05-14T17:35:38.863Z,25.50
2023-05-14T17:38:06.336Z,24.90
2023-05-14T17:40:36.536Z,25.30
2023-05-14T17:43:03.945Z,25.49
2023-05-14T17:45:42.727Z,25.83
2023-05-14T17:48:20.043Z,25.58
2023-05-14T17:50:47.314Z,25.55
2023-05-14T17:53:14.991Z,25.28
2023-05-14T17:55:42.347Z,24.86
2023-05-14T17:58:12.555Z,25.21
2023-05-14T18:00:44.268Z,24.62
2023-05-14T18:03:11.947Z,25.02
2023-05-14T18:05:41.783Z,24.67
2023-05-14T18:08:09.138Z,24.97
2023-05-14T18:10:36.599Z,24.99
2023-05-14T18:13:03.993Z,25.33
2023-05-14T18:15:31.380Z,25.24
2023-05-14T18:18:09.709Z,25.10
2023-05-14T18:20:37.141Z,24.90
2023-05-14T18:23:04.449Z,25.21
2023-05-14T18:25:32.084Z,25.17
2023-05-14T18:27:59.469Z,25.43
2023-05-14T18:30:28.064Z,25.49
2023-05-14T18:32:55.318Z,25.90
2023-05-14T18:35:26.731Z,25.97
2023-05-14T18:37:54.421Z,25.48
2023-05-14T18:40:21.726Z,25.15
2023-05-14T18:42:49.154Z,25.58
2023-05-14T18:45:16.525Z,25.46
2023-05-14T18:47:44.013Z,25.43
2023-05-14T18:50:11.533Z,25.88
2023-05-14T18:52:40.232Z,24.93
2023-05-14T18:55:08.384Z,25.39
2023-05-14T18:57:36.762Z,25.37
2023-05-14T19:00:04.639Z,24.98
2023-05-14T19:02:32.077Z,24.99
2023-05-14T19:04:59.385Z,25.24
2023-05-14T19:07:26.883Z,25.38
2023-05-14T19:09:55.507Z,25.41
2023-05-14T19:12:22.851Z,25.40
2023-05-14T19:14:50.105Z,25.26
2023-05-14T19:17:19.243Z,25.29
2023-05-14T19:19:47.851Z,25.02
2023-05-14T19:22:15.300Z,25.07
2023-05-14T19:24:42.838Z,25.16
2023-05-14T19:27:11.661Z,25.21
2023-05-14T19:29:39.125Z,25.34
2023-05-14T19:32:07.564Z,24.89
2023-05-14T19:34:35.106Z,24.92
2023-05-14T19:37:03.168Z,25.10
2023-05-14T19:39:30.616Z,24.25
2023-05-14T19:41:58.050Z,24.60
2023-05-14T19:44:26.772Z,24.39
2023-05-14T19:46:54.291Z,24.02
2023-05-14T19:49:21.780Z,24.56
2023-05-14T19:51:49.098Z,24.60
2023-05-14T19:54:17.348Z,24.54
2023-05-14T19:56:44.885Z,24.41
2023-05-14T19:59:12.660Z,24.43
2023-05-14T20:01:41.474Z,24.70
2023-05-14T20:04:09.017Z,24.61
2023-05-14T20:06:36.670Z,24.88
2023-05-14T20:09:03.873Z,24.66
2023-05-14T20:11:31.154Z,24.35
2023-05-14T20:13:58.379Z,24.40
2023-05-14T20:16:25.881Z,23.97
2023-05-14T20:18:54.768Z,23.48
2023-05-14T20:21:22.155Z,24.11
2023-05-14T20:23:49.432Z,24.06
2023-05-14T20:26:17.146Z,24.27
2023-05-14T20:28:44.521Z,23.76
2023-05-14T20:31:12.259Z,23.50
2023-05-14T20:33:39.707Z,23.78
2023-05-14T20:36:09.061Z,23.74
2023-05-14T20:38:36.707Z,23.83
2023-05-14T20:41:04.045Z,23.93
2023-05-14T20:43:31.654Z,24.24
2023-05-14T20:45:59.187Z,23.99
2023-05-14T20:48:26.986Z,23.16
2023-05-14T20:50:57.325Z,23.65
2023-05-14T20:53:27.200Z,23.05
2023-05-14T20:55:54.851Z,23.15
2023-05-14T20:58:22.186Z,23.79
2023-05-14T21:00:49.807Z,24.00
2023-05-14T21:03:17.224Z,23.25
2023-05-14T21:05:44.879Z,23.72
2023-05-14T21:08:12.181Z,23.97
2023-05-14T21:10:40.820Z,23.74
2023-05-14T21:13:08.344Z,23.69
2023-05-14T21:15:35.876Z,23.59
2023-05-14T21:18:04.135Z,23.82
2023-05-14T21:20:31.471Z,23.90
2023-05-14T21:22:58.739Z,23.67
2023-05-14T21:25:26.943Z,23.39
2023-05-14T21:27:56.072Z,23.75
2023-05-14T21:30:23.509Z,23.65
2023-05-14T21:32:50.827Z,23.73
2023-05-14T21:35:18.293Z,23.26
2023-05-14T21:37:45.670Z,22.80
2023-05-14T21:40:13.390Z,23.75
2023-05-14T21:42:40.749Z,23.16
2023-05-14T21:45:10.514Z,23.23
2023-05-14T21:47:38.128Z,23.25
2023-05-14T21:50:09.229Z,23.73
2023-05-14T21:52:36.981Z,23.23
2023-05-14T21:55:04.954Z,23.22
2023-05-14T21:57:34.680Z,23.00
2023-05-14T22:00:02.328Z,23.34
2023-05-14T22:02:33.299Z,22.86
2023-05-14T22:05:00.685Z,23.12
2023-05-14T22:07:28.060Z,23.18
2023-05-14T22:09:55.378Z,23.09
2023-05-14T22:12:22.739Z,22.81
2023-05-14T22:14:50.389Z,23.04
2023-05-14T22:17:17.710Z,22.79
2023-05-14T22:19:46.417Z,23.18
2023-05-14T22:22:13.704Z,23.39
2023-05-14T22:24:41.195Z,23.31
2023-05-14T22:27:08.519Z,22.76
2023-05-14T22:29:38.149Z,23.26
2023-05-14T22:32:06.664Z,23.07
2023-05-14T22:34:34.084Z,22.68
2023-05-14T22:37:02.851Z,22.36
2023-05-14T22:39:30.288Z,22.65
2023-05-14T22:41:57.666Z,23.05
2023-05-14T22:44:25.800Z,22.32
2023-05-14T22:46:53.983Z,22.57
2023-05-14T22:49:21.427Z,21.98
2023-05-14T22:51:48.692Z,22.48
2023-05-14T22:54:17.611Z,22.68
2023-05-14T22:56:45.692Z,22.98
2023-05-14T22:59:13.170Z,23.13
2023-05-14T23:01:40.387Z,22.91
2023-05-14T23:04:07.769Z,22.35
2023-05-14T23:06:35.365Z,22.26
2023-05-14T23:09:02.721Z,21.72
2023-05-14T23:11:31.332Z,22.32
2023-05-14T23:13:58.707Z,21.78
2023-05-14T23:16:25.967Z,21.66
2023-05-14T23:18:53.439Z,22.04
2023-05-14T23:21:20.940Z,22.14
2023-05-14T23:23:48.252Z,22.13
2023-05-14T23:26:15.872Z,22.46
2023-05-14T23:28:44.714Z,22.53
2023-05-14T23:31:13.135Z,22.65
2023-05-14T23:33:40.460Z,22.65
2023-05-14T23:36:08.555Z,22.04
2023-05-14T23:38:36.522Z,22.15
2023-05-14T23:41:04.018Z,22.23
2023-05-14T23:43:31.353Z,22.15
2023-05-14T23:46:00.213Z,22.25
2023-05-14T23:48:27.747Z,22.19
2023-05-14T23:50:55.164Z,22.16
2023-05-14T23:53:23.080Z,22.03
2023-05-14T23:55:50.500Z,22.23
2023-05-14T23:58:17.925Z,21.85
